Time;durP1;ratioP1;P1;durP2;ratioP2;P2;SDS_P1;SDS_P2;PMS_P1;PMS_P2;Temp;Humidity;BMP_temperature;BMP_pressure;BME280_temperature;BME280_humidity;BME280_pressure;Samples;Min_cycle;Max_cycle;Signal;HPM_P1;HPM_P2
2022/01/04 00:02:55;;;;;;;11.68;3.95;;;;;;;6.51;100.00;98633.94;5106943;28;20148;-83
2022/01/04 00:05:39;;;;;;;11.02;4.50;;;;;;;6.62;100.00;98631.03;5103781;28;20101;-83
2022/01/04 00:08:26;;;;;;;13.05;4.50;;;;;;;6.68;100.00;98634.31;5103836;28;20040;-83
2022/01/04 00:11:20;;;;;;;9.07;4.03;;;;;;;6.64;100.00;98627.47;5089679;28;20040;-82
2022/01/04 00:14:04;;;;;;;10.02;3.97;;;;;;;6.60;100.00;98627.59;5118722;28;20058;-82
2022/01/04 00:16:50;;;;;;;17.60;4.13;;;;;;;6.52;100.00;98612.22;5103559;28;20077;-82
2022/01/04 00:19:34;;;;;;;11.05;3.58;;;;;;;6.67;100.00;98631.75;5103556;28;20428;-83
2022/01/04 00:22:19;;;;;;;11.88;4.07;;;;;;;6.69;100.00;98633.41;5103585;28;20040;-83
2022/01/04 00:25:04;;;;;;;9.75;3.75;;;;;;;6.68;100.00;98636.06;5086535;28;20126;-83
2022/01/04 00:27:49;;;;;;;9.20;4.47;;;;;;;6.72;100.00;98620.31;5118551;28;20043;-83
2022/01/04 00:30:35;;;;;;;7.93;3.38;;;;;;;6.77;100.00;98621.03;5089117;28;20169;-83
2022/01/04 00:33:20;;;;;;;8.48;3.70;;;;;;;6.82;100.00;98613.09;5103486;28;20040;-82
2022/01/04 00:36:05;;;;;;;8.05;3.33;;;;;;;6.73;100.00;98601.22;5118354;28;20419;-83
2022/01/04 00:38:50;;;;;;;11.15;4.85;;;;;;;6.69;100.00;98607.38;5089018;28;20435;-83
2022/01/04 00:41:34;;;;;;;9.57;3.42;;;;;;;6.74;100.00;98602.91;5103125;28;20036;-82
2022/01/04 00:44:18;;;;;;;7.28;3.92;;;;;;;6.73;100.00;98601.22;5103150;28;20048;-83
2022/01/04 00:47:03;;;;;;;9.82;3.17;;;;;;;6.79;100.00;98598.44;5118282;28;20043;-82
2022/01/04 00:49:48;;;;;;;9.82;3.60;;;;;;;6.77;100.00;98588.97;5102971;28;20039;-82
2022/01/04 00:52:32;;;;;;;10.18;3.25;;;;;;;6.79;100.00;98602.75;5088419;28;20066;-82
2022/01/04 00:55:17;;;;;;;6.15;2.67;;;;;;;6.71;100.00;98579.56;5131712;27;20400;-82
2022/01/04 00:58:02;;;;;;;9.98;3.50;;;;;;;6.79;100.00;98590.63;5088156;28;20039;-82
2022/01/04 01:00:46;;;;;;;8.85;2.88;;;;;;;6.81;100.00;98580.16;5102813;28;20067;-81
2022/01/04 01:03:30;;;;;;;8.50;2.97;;;;;;;6.74;100.00;98582.09;5117696;28;20039;-82
2022/01/04 01:06:15;;;;;;;6.57;2.30;;;;;;;6.80;100.00;98581.06;5117802;28;20067;-82
2022/01/04 01:09:01;;;;;;;6.53;3.00;;;;;;;6.84;100.00;98576.63;5102696;28;20093;-81
2022/01/04 01:11:46;;;;;;;7.80;2.88;;;;;;;6.80;100.00;98562.84;5088309;28;20097;-81
2022/01/04 01:14:30;;;;;;;5.80;2.85;;;;;;;6.72;100.00;98570.00;5131414;27;20118;-82
2022/01/04 01:17:14;;;;;;;7.22;3.10;;;;;;;6.76;100.00;98550.84;5102604;28;20100;-82
2022/01/04 01:20:00;;;;;;;8.70;3.28;;;;;;;6.82;100.00;98555.81;5102638;28;20469;-82
2022/01/04 01:22:44;;;;;;;8.88;3.67;;;;;;;6.81;100.00;98550.69;5119313;27;20058;-82
2022/01/04 01:25:29;;;;;;;13.55;5.65;;;;;;;6.83;100.00;98551.50;5102333;28;20447;-82
2022/01/04 01:28:15;;;;;;;17.50;8.88;;;;;;;6.73;100.00;98545.72;5117413;28;20040;-82
2022/01/04 01:30:59;;;;;;;26.30;11.73;;;;;;;6.81;100.00;98551.53;5102271;28;20405;-82
2022/01/04 01:33:44;;;;;;;18.63;8.52;;;;;;;6.92;100.00;98548.59;5087983;28;20036;-82
2022/01/04 01:36:29;;;;;;;12.05;6.57;;;;;;;6.75;100.00;98533.50;5104496;28;20070;-82
2022/01/04 01:39:13;;;;;;;11.27;5.05;;;;;;;6.88;100.00;98542.63;5117187;28;20043;-82
2022/01/04 01:41:57;;;;;;;9.70;4.53;;;;;;;6.84;100.00;98542.78;5117150;28;20398;-82
2022/01/04 01:44:42;;;;;;;7.20;3.42;;;;;;;6.90;100.00;98525.22;5116962;28;20127;-81
2022/01/04 01:47:26;;;;;;;6.82;2.90;;;;;;;6.88;100.00;98521.81;5116994;28;20043;-82
2022/01/04 01:50:12;;;;;;;7.97;2.85;;;;;;;6.95;100.00;98530.28;5102045;28;20455;-83
2022/01/04 01:52:56;;;;;;;4.95;2.53;;;;;;;6.97;100.00;98523.28;5095478;28;20059;-82
2022/01/04 01:55:41;;;;;;;7.38;3.40;;;;;;;6.96;100.00;98513.78;5095671;28;20474;-82
2022/01/04 01:58:25;;;;;;;7.60;2.45;;;;;;;6.98;100.00;98509.38;5081490;28;20048;-82
2022/01/04 02:01:11;;;;;;;8.20;2.20;;;;;;;7.06;100.00;98507.38;5095698;28;20054;-82
2022/01/04 02:03:55;;;;;;;5.10;1.88;;;;;;;7.00;100.00;98510.19;5081402;28;20052;-83
2022/01/04 02:06:40;;;;;;;5.97;2.03;;;;;;;7.10;100.00;98495.13;5081384;28;20040;-82
2022/01/04 02:09:26;;;;;;;6.97;2.10;;;;;;;6.94;100.00;98498.19;5094793;28;20036;-82
2022/01/04 02:12:11;;;;;;;5.43;1.92;;;;;;;6.95;100.00;98494.69;5095540;28;20070;-82
2022/01/04 02:14:55;;;;;;;5.78;1.95;;;;;;;6.95;100.00;98489.47;5081247;28;20492;-82
2022/01/04 02:17:40;;;;;;;6.75;1.98;;;;;;;6.82;100.00;98488.16;5080956;28;20359;-82
2022/01/04 02:20:24;;;;;;;7.50;2.42;;;;;;;6.77;100.00;98492.66;5095466;28;20036;-82
2022/01/04 02:23:09;;;;;;;7.22;2.58;;;;;;;6.67;100.00;98497.31;5081206;28;20097;-82
2022/01/04 02:25:56;;;;;;;3.30;1.73;;;;;;;6.47;100.00;98491.84;5096115;28;20424;-82
2022/01/04 02:28:42;;;;;;;4.57;1.92;;;;;;;6.39;100.00;98491.19;5095316;28;20048;-82
2022/01/04 02:31:29;;;;;;;3.55;2.25;;;;;;;6.44;100.00;98500.59;5096025;28;20048;-82
2022/01/04 02:34:14;;;;;;;7.57;2.45;;;;;;;6.40;100.00;98498.09;5096046;28;20044;-82
2022/01/04 02:36:59;;;;;;;7.07;2.50;;;;;;;6.40;100.00;98488.56;5095196;28;20340;-82
2022/01/04 02:39:44;;;;;;;8.40;3.10;;;;;;;6.28;100.00;98484.56;5066955;28;20461;-82
2022/01/04 02:42:28;;;;;;;9.93;4.38;;;;;;;6.23;100.00;98486.44;5095183;28;20412;-81
2022/01/04 02:45:13;;;;;;;11.85;4.35;;;;;;;6.24;100.00;98480.34;5095888;28;20455;-82
2022/01/04 02:47:57;;;;;;;11.63;5.70;;;;;;;6.18;100.00;98464.06;5095299;28;20040;-82
2022/01/04 02:50:42;;;;;;;14.00;6.68;;;;;;;6.29;100.00;98459.41;5080882;28;20036;-82
2022/01/04 02:53:26;;;;;;;14.50;7.10;;;;;;;6.26;100.00;98460.34;5080865;28;20080;-82
2022/01/04 02:56:13;;;;;;;16.15;7.40;;;;;;;6.29;100.00;98447.25;5095706;28;20402;-82
2022/01/04 02:59:03;;;;;;;14.68;7.13;;;;;;;6.24;100.00;98437.88;5081059;28;20108;-82
2022/01/04 03:01:48;;;;;;;13.85;7.03;;;;;;;6.38;100.00;98451.34;5095052;28;20051;-81
2022/01/04 03:04:32;;;;;;;12.15;6.55;;;;;;;6.41;100.00;98448.66;5094998;28;20052;-82
2022/01/04 03:07:17;;;;;;;13.18;7.10;;;;;;;6.37;100.00;98428.84;5094983;28;20040;-82
2022/01/04 03:10:02;;;;;;;10.00;5.30;;;;;;;6.36;100.00;98423.66;5095697;28;20043;-81
2022/01/04 03:12:47;;;;;;;9.27;5.75;;;;;;;6.36;100.00;98421.06;5080857;28;20052;-82
2022/01/04 03:15:31;;;;;;;8.27;4.32;;;;;;;6.35;100.00;98417.63;5095585;28;20047;-82
2022/01/04 03:18:15;;;;;;;8.20;4.28;;;;;;;6.31;100.00;98416.00;5094875;28;20040;-82
2022/01/04 03:20:59;;;;;;;6.10;3.53;;;;;;;6.35;100.00;98417.63;5098571;28;20114;-81
2022/01/04 03:23:44;;;;;;;6.70;3.65;;;;;;;6.30;100.00;98399.56;5099311;28;20036;-82
2022/01/04 03:26:29;;;;;;;9.60;3.92;;;;;;;6.32;100.00;98415.09;5099293;28;20420;-82
2022/01/04 03:29:15;;;;;;;7.60;4.22;;;;;;;6.29;100.00;98410.84;5099279;28;20036;-81
2022/01/04 03:31:59;;;;;;;6.88;3.28;;;;;;;6.24;100.00;98404.06;5099417;28;20119;-82
2022/01/04 03:34:44;;;;;;;3.22;1.42;;;;;;;6.00;100.00;98392.66;5098422;28;20044;-82
2022/01/04 03:37:28;;;;;;;1.85;0.98;;;;;;;6.17;100.00;98406.00;5099160;28;20044;-82
2022/01/04 03:40:13;;;;;;;1.83;0.80;;;;;;;6.09;100.00;98393.25;5084324;28;20355;-82
2022/01/04 03:42:58;;;;;;;5.15;1.35;;;;;;;6.07;100.00;98388.97;5098472;28;20047;-82
2022/01/04 03:45:42;;;;;;;2.05;0.80;;;;;;;6.01;100.00;98378.75;5098215;28;20353;-82
2022/01/04 03:48:26;;;;;;;2.08;0.95;;;;;;;5.98;100.00;98390.13;5098188;28;20040;-81
2022/01/04 03:51:11;;;;;;;2.42;1.23;;;;;;;6.08;100.00;98385.50;5100745;28;20051;-82
2022/01/04 03:53:55;;;;;;;2.30;1.42;;;;;;;6.12;100.00;98373.25;5119156;28;20050;-81
2022/01/04 03:56:40;;;;;;;2.90;2.20;;;;;;;6.08;100.00;98375.09;5089583;28;20040;-81
2022/01/04 03:59:24;;;;;;;2.53;2.03;;;;;;;6.01;100.00;98365.75;5089781;28;20043;-81
2022/01/04 04:02:09;;;;;;;2.03;1.00;;;;;;;6.03;100.00;98356.19;5119012;28;20051;-81
2022/01/04 04:04:53;;;;;;;2.38;1.20;;;;;;;6.03;100.00;98345.78;5132767;27;20040;-81
2022/01/04 04:07:37;;;;;;;1.55;0.90;;;;;;;6.10;100.00;98342.09;5089537;28;20051;-82
2022/01/04 04:10:21;;;;;;;1.52;0.93;;;;;;;6.03;100.00;98325.84;5118968;28;20397;-82
2022/01/04 04:13:06;;;;;;;2.97;1.20;;;;;;;5.95;100.00;98326.97;5118108;28;20039;-81
2022/01/04 04:15:51;;;;;;;1.73;0.95;;;;;;;6.03;100.00;98349.22;5103643;28;20036;-81
2022/01/04 04:18:35;;;;;;;0.95;0.50;;;;;;;6.03;100.00;98337.97;5103711;28;20101;-82
2022/01/04 04:21:20;;;;;;;1.05;0.60;;;;;;;6.15;100.00;98340.22;5103607;28;20357;-82
2022/01/04 04:24:05;;;;;;;1.95;0.75;;;;;;;6.15;100.00;98336.78;5089487;28;20043;-81
2022/01/04 04:26:49;;;;;;;2.42;0.95;;;;;;;6.17;100.00;98348.81;5089128;28;20096;-81
2022/01/04 04:29:33;;;;;;;5.13;1.60;;;;;;;6.19;100.00;98339.22;5100828;28;20136;-81
2022/01/04 04:32:18;;;;;;;6.95;2.80;;;;;;;6.16;100.00;98333.25;5116946;28;20039;-81
2022/01/04 04:35:03;;;;;;;5.57;1.33;;;;;;;6.24;100.00;98337.34;5118470;28;20035;-81
2022/01/04 04:37:47;;;;;;;7.65;3.22;;;;;;;6.35;100.00;98331.81;5086307;28;20051;-81
2022/01/04 04:40:32;;;;;;;11.75;4.95;;;;;;;6.32;100.00;98324.09;5118247;28;20040;-81
2022/01/04 04:43:16;;;;;;;12.27;6.20;;;;;;;6.36;100.00;98317.88;5103197;28;20040;-81
2022/01/04 04:46:01;;;;;;;7.80;3.65;;;;;;;6.42;100.00;98320.28;5103148;28;20340;-81
2022/01/04 04:48:45;;;;;;;2.92;1.77;;;;;;;6.44;100.00;98318.50;5103107;28;20043;-81
2022/01/04 04:51:29;;;;;;;4.35;2.35;;;;;;;6.46;100.00;98297.63;5117848;28;20124;-81
2022/01/04 04:54:14;;;;;;;3.90;2.17;;;;;;;6.35;100.00;98298.00;5103021;28;20044;-81
2022/01/04 04:56:59;;;;;;;2.15;1.15;;;;;;;6.43;100.00;98298.56;5099929;28;20062;-81
2022/01/04 04:59:43;;;;;;;6.72;3.33;;;;;;;6.48;100.00;98301.91;5102783;28;20050;-81
2022/01/04 05:02:28;;;;;;;6.70;4.93;;;;;;;6.49;100.00;98301.00;5102765;28;20035;-81
2022/01/04 05:05:12;;;;;;;7.05;5.60;;;;;;;6.44;100.00;98297.69;5088565;28;20043;-80
2022/01/04 05:07:56;;;;;;;5.57;4.07;;;;;;;6.46;100.00;98288.09;5117983;28;20442;-81
2022/01/04 05:10:42;;;;;;;10.18;6.93;;;;;;;6.48;100.00;98294.09;5117675;28;20427;-81
2022/01/04 05:13:26;;;;;;;8.98;5.72;;;;;;;6.55;100.00;98298.19;5102568;28;20040;-81
2022/01/04 05:16:11;;;;;;;11.05;6.95;;;;;;;6.61;100.00;98291.94;5102459;28;20135;-81
2022/01/04 05:18:55;;;;;;;23.63;15.32;;;;;;;6.58;100.00;98288.59;5105070;27;20448;-81
2022/01/04 05:21:40;;;;;;;25.17;16.55;;;;;;;6.51;100.00;98285.34;5099693;28;20052;-81
2022/01/04 05:24:24;;;;;;;19.60;12.80;;;;;;;6.40;100.00;98269.22;5117614;28;20474;-81
2022/01/04 05:27:09;;;;;;;20.10;13.13;;;;;;;6.44;100.00;98269.09;5102326;28;20046;-81
2022/01/04 05:29:53;;;;;;;16.65;12.25;;;;;;;6.40;100.00;98274.44;5102212;28;20333;-81
2022/01/04 05:32:37;;;;;;;12.05;8.57;;;;;;;6.44;100.00;98274.28;5117275;28;20431;-81
2022/01/04 05:35:22;;;;;;;9.88;6.72;;;;;;;6.39;100.00;98277.94;5102192;28;20039;-81
2022/01/04 05:38:06;;;;;;;7.35;6.05;;;;;;;6.44;100.00;98282.09;5117377;28;20069;-81
2022/01/04 05:40:50;;;;;;;7.22;4.65;;;;;;;6.49;100.00;98272.38;5102308;28;20047;-81
2022/01/04 05:43:35;;;;;;;7.07;4.50;;;;;;;6.33;100.00;98250.38;5101820;28;20040;-80
2022/01/04 05:46:19;;;;;;;8.23;6.10;;;;;;;6.35;100.00;98255.53;5102010;28;20077;-81
2022/01/04 05:49:03;;;;;;;10.00;6.53;;;;;;;6.49;100.00;98259.38;5101905;28;20039;-81
2022/01/04 05:51:48;;;;;;;11.02;5.63;;;;;;;6.53;100.00;98249.72;5104382;27;20047;-81
2022/01/04 05:54:32;;;;;;;9.82;5.40;;;;;;;6.55;100.00;98248.75;5113615;28;20066;-81
2022/01/04 05:57:18;;;;;;;10.30;5.28;;;;;;;6.58;100.00;98250.41;5116755;28;20096;-81
2022/01/04 06:00:04;;;;;;;9.40;4.90;;;;;;;6.60;100.00;98246.03;5101874;28;20042;-81
2022/01/04 06:02:54;;;;;;;7.60;3.50;;;;;;;6.64;100.00;98239.81;5102446;28;20042;-81
2022/01/04 06:05:39;;;;;;;7.82;3.53;;;;;;;6.57;100.00;98233.13;5094322;28;20040;-81
2022/01/04 06:08:23;;;;;;;5.78;3.20;;;;;;;6.61;100.00;98229.50;5081102;28;20047;-81
2022/01/04 06:11:18;;;;;;;4.22;2.45;;;;;;;6.66;100.00;98235.41;5080506;28;20152;-81
2022/01/04 06:17:08;;;;;;;8.35;4.20;;;;;;;6.67;100.00;98234.50;5076654;28;20395;-79
2022/01/04 06:19:55;;;;;;;4.25;2.63;;;;;;;6.71;100.00;98237.84;5094318;28;20051;-80
2022/01/04 06:22:40;;;;;;;3.65;2.10;;;;;;;6.68;100.00;98230.16;5079227;28;20440;-80
2022/01/04 06:25:25;;;;;;;3.35;2.30;;;;;;;6.55;100.00;98222.75;5094319;28;20048;-80
2022/01/04 06:28:09;;;;;;;7.22;3.30;;;;;;;6.55;100.00;98214.09;5079342;28;20127;-81
2022/01/04 06:30:54;;;;;;;19.48;8.60;;;;;;;6.48;100.00;98223.03;5079600;28;20040;-80
2022/01/04 06:33:39;;;;;;;16.23;10.10;;;;;;;6.59;100.00;98214.84;5079284;28;20036;-81
2022/01/04 06:36:23;;;;;;;11.77;6.63;;;;;;;6.60;100.00;98208.72;5094132;28;20043;-81
2022/01/04 06:39:07;;;;;;;12.45;6.13;;;;;;;6.64;100.00;98213.78;5093422;28;20047;-81
2022/01/04 06:41:52;;;;;;;13.38;7.13;;;;;;;6.61;100.00;98213.91;5094116;28;20036;-81
2022/01/04 06:44:36;;;;;;;8.07;3.38;;;;;;;6.50;100.00;98198.66;5094073;28;20417;-81
2022/01/04 06:47:21;;;;;;;5.82;3.40;;;;;;;6.57;100.00;98198.47;5079058;28;20048;-81
2022/01/04 06:50:06;;;;;;;8.95;5.40;;;;;;;6.59;100.00;98192.28;5093937;28;20036;-81
2022/01/04 06:52:50;;;;;;;8.55;5.07;;;;;;;6.49;100.00;98188.28;5094746;28;20048;-81
2022/01/04 06:55:34;;;;;;;15.55;6.82;;;;;;;6.55;100.00;98188.09;5083078;28;20044;-81
2022/01/04 06:58:19;;;;;;;12.88;7.25;;;;;;;6.64;100.00;98203.38;5099968;28;20047;-81
2022/01/04 07:01:03;;;;;;;12.57;7.07;;;;;;;6.62;100.00;98186.13;5067709;28;20448;-81
2022/01/04 07:03:48;;;;;;;10.23;5.22;;;;;;;6.69;100.00;98179.78;5084152;28;20032;-86
2022/01/04 07:06:33;;;;;;;20.38;6.90;;;;;;;6.60;100.00;98167.09;5084088;28;20044;-86
2022/01/04 07:09:17;;;;;;;14.98;6.88;;;;;;;6.62;100.00;98170.50;5084543;28;20044;-86
2022/01/04 07:12:02;;;;;;;18.27;7.05;;;;;;;6.63;100.00;98165.28;5098313;28;20040;-86
2022/01/04 07:14:47;;;;;;;15.98;6.65;;;;;;;6.57;100.00;98167.25;5099583;28;20051;-80
2022/01/04 07:17:33;;;;;;;20.27;7.32;;;;;;;6.48;100.00;98155.41;5097330;28;20447;-80
2022/01/04 07:20:18;;;;;;;25.77;9.35;;;;;;;6.55;100.00;98144.72;5097460;28;20340;-80
2022/01/04 07:23:02;;;;;;;38.67;13.63;;;;;;;6.48;100.00;98140.63;5097061;28;20436;-80
2022/01/04 07:25:47;;;;;;;35.72;11.93;;;;;;;6.64;100.00;98142.69;5082671;28;20453;-81
2022/01/04 07:28:32;;;;;;;25.23;9.52;;;;;;;6.72;100.00;98149.31;5096791;28;20070;-80
2022/01/04 07:31:17;;;;;;;23.60;11.40;;;;;;;6.60;100.00;98147.16;5097476;28;20055;-80
2022/01/04 07:34:01;;;;;;;20.55;7.15;;;;;;;6.66;100.00;98139.16;5082314;28;20047;-80
2022/01/04 07:36:46;;;;;;;25.85;9.05;;;;;;;6.74;100.00;98137.09;5082411;28;20093;-80
2022/01/04 07:39:30;;;;;;;21.60;9.07;;;;;;;6.75;100.00;98130.16;5068569;28;20036;-80
2022/01/04 07:42:15;;;;;;;21.05;9.55;;;;;;;6.71;100.00;98111.19;5097740;28;20478;-80
2022/01/04 07:45:02;;;;;;;18.25;7.78;;;;;;;6.76;100.00;98108.44;5097669;28;20059;-80
2022/01/04 07:47:46;;;;;;;13.68;6.97;;;;;;;6.79;100.00;98109.19;5099032;28;20044;-80
2022/01/04 07:50:30;;;;;;;11.07;5.35;;;;;;;6.78;100.00;98097.06;5112594;28;20123;-80
2022/01/04 07:53:15;;;;;;;15.32;6.88;;;;;;;6.91;100.00;98096.59;5098716;28;20048;-80
2022/01/04 07:56:00;;;;;;;17.33;7.68;;;;;;;6.89;100.00;98080.19;5070226;28;20040;-80
2022/01/04 07:58:45;;;;;;;15.07;6.70;;;;;;;6.93;100.00;98087.00;5083949;28;20037;-80
2022/01/04 08:01:29;;;;;;;12.57;7.05;;;;;;;6.96;100.00;98079.06;5084042;28;20047;-80
2022/01/04 08:04:14;;;;;;;11.13;5.82;;;;;;;7.01;100.00;98075.38;5098895;28;20044;-80
2022/01/04 08:06:58;;;;;;;10.48;4.95;;;;;;;7.01;100.00;98059.75;5082596;28;20113;-80
2022/01/04 08:09:42;;;;;;;9.30;5.60;;;;;;;6.82;100.00;98027.53;5098792;28;20040;-80
2022/01/04 08:12:26;;;;;;;10.65;5.50;;;;;;;7.06;100.00;98056.16;5084012;28;20051;-80
2022/01/04 08:15:11;;;;;;;8.50;6.05;;;;;;;7.12;100.00;98061.13;5098344;28;20094;-80
2022/01/04 08:17:56;;;;;;;9.35;5.53;;;;;;;7.16;100.00;98050.50;5099011;28;20047;-82
2022/01/04 08:20:40;;;;;;;13.80;7.32;;;;;;;7.12;100.00;98037.69;5083380;28;20041;-80
2022/01/04 08:23:25;;;;;;;15.48;7.88;;;;;;;7.27;100.00;98024.03;5080583;28;20047;-80
2022/01/04 08:26:09;;;;;;;18.50;13.25;;;;;;;7.24;100.00;98018.94;5098184;28;20059;-80
2022/01/04 08:28:54;;;;;;;18.67;12.48;;;;;;;7.19;100.00;98013.94;5097408;28;20047;-81
2022/01/04 08:31:39;;;;;;;12.23;8.48;;;;;;;7.29;100.00;98006.59;5083503;28;20051;-80
2022/01/04 08:34:24;;;;;;;13.38;7.88;;;;;;;7.37;100.00;97999.31;5080423;28;20059;-81
2022/01/04 08:37:08;;;;;;;10.77;7.22;;;;;;;7.25;100.00;98003.28;5111599;28;20036;-81
2022/01/04 08:39:53;;;;;;;12.38;6.35;;;;;;;7.44;100.00;98000.78;5097557;28;20058;-81
2022/01/04 08:42:38;;;;;;;11.18;7.60;;;;;;;7.48;100.00;97993.69;5083007;28;20044;-81
2022/01/04 08:45:24;;;;;;;9.27;6.68;;;;;;;7.37;100.00;97975.88;5098480;28;20032;-81
2022/01/04 08:48:09;;;;;;;8.57;5.97;;;;;;;7.56;100.00;97978.56;5082969;28;20368;-81
2022/01/04 08:50:54;;;;;;;11.23;7.45;;;;;;;7.68;100.00;97982.44;5080075;28;20055;-81
2022/01/04 08:53:38;;;;;;;14.82;9.40;;;;;;;7.73;100.00;97973.50;5111824;28;20044;-81
2022/01/04 08:56:22;;;;;;;17.45;11.32;;;;;;;7.67;100.00;97963.34;5069158;28;20050;-81
2022/01/04 08:59:08;;;;;;;15.07;11.32;;;;;;;7.73;100.00;97975.25;5098290;28;20036;-81
2022/01/04 09:01:53;;;;;;;13.82;8.85;;;;;;;7.90;100.00;97974.56;5083138;28;20050;-80
2022/01/04 09:04:37;;;;;;;29.83;14.45;;;;;;;7.71;100.00;97972.72;5097489;28;20126;-81
2022/01/04 09:07:22;;;;;;;28.60;14.48;;;;;;;7.67;100.00;97968.56;5097351;28;20059;-81
2022/01/04 09:10:07;;;;;;;19.67;12.10;;;;;;;7.80;100.00;97971.50;5097668;28;20040;-81
2022/01/04 09:13:07;;;;;;;21.05;9.07;;;;;;;7.76;100.00;97967.31;5082938;28;20051;-81
2022/01/04 09:18:48;;;;;;;12.93;5.90;;;;;;;7.89;100.00;97965.00;5081935;28;20040;-81
2022/01/04 09:21:33;;;;;;;16.20;7.63;;;;;;;7.91;100.00;97964.03;5082239;28;20044;-81
2022/01/04 09:24:18;;;;;;;33.42;12.10;;;;;;;7.87;100.00;97966.88;5096454;28;20395;-81
2022/01/04 09:27:05;;;;;;;24.55;10.77;;;;;;;8.00;100.00;97959.34;5082067;28;20044;-81
2022/01/04 09:29:50;;;;;;;26.08;10.80;;;;;;;8.07;100.00;97966.84;5110760;28;20048;-81
2022/01/04 09:32:35;;;;;;;11.88;6.90;;;;;;;8.14;100.00;97962.19;5082081;28;20368;-81
2022/01/04 09:35:19;;;;;;;11.65;6.03;;;;;;;8.13;100.00;97950.06;5082055;28;20044;-81
2022/01/04 09:38:05;;;;;;;12.23;7.07;;;;;;;8.16;100.00;97944.72;5082549;28;20160;-81
2022/01/04 09:40:50;;;;;;;18.27;9.57;;;;;;;8.12;100.00;97930.94;5081975;28;20056;-81
2022/01/04 09:43:34;;;;;;;16.02;8.20;;;;;;;8.22;100.00;97927.94;5097635;28;20051;-81
2022/01/04 09:46:19;;;;;;;18.48;8.95;;;;;;;8.26;100.00;97927.75;5097391;28;20048;-81
2022/01/04 09:49:04;;;;;;;20.83;12.55;;;;;;;8.29;100.00;97924.16;5067746;28;20439;-81
2022/01/04 09:51:50;;;;;;;16.08;10.45;;;;;;;8.25;100.00;97917.38;5081691;28;20445;-81
2022/01/04 09:54:37;;;;;;;20.83;11.73;;;;;;;8.25;100.00;97899.94;5096035;28;20040;-81
2022/01/04 09:57:22;;;;;;;25.75;13.98;;;;;;;8.30;100.00;97894.53;5082219;28;20044;-81
2022/01/04 10:00:09;;;;;;;27.17;16.95;;;;;;;8.38;100.00;97908.09;5078971;28;20056;-81
2022/01/04 10:03:09;;;;;;;23.50;13.73;;;;;;;8.34;100.00;97883.03;5081996;28;20064;-81
2022/01/04 10:06:15;;;;;;;34.03;18.20;;;;;;;8.24;100.00;97869.56;5081613;28;20105;-80
2022/01/04 10:09:11;;;;;;;19.40;12.80;;;;;;;8.31;100.00;97872.75;5081896;28;20228;-81
2022/01/04 10:11:58;;;;;;;29.40;18.92;;;;;;;8.35;100.00;97867.34;5096267;28;20036;-80
2022/01/04 10:14:46;;;;;;;30.00;17.92;;;;;;;8.36;100.00;97863.78;5081967;28;20040;-81
2022/01/04 10:17:33;;;;;;;24.48;14.48;;;;;;;8.56;100.00;97869.88;5081470;28;20097;-79
2022/01/04 10:20:18;;;;;;;34.17;20.70;;;;;;;8.52;100.00;97856.13;5095615;28;20051;-79
2022/01/04 10:23:14;;;;;;;22.75;14.23;;;;;;;8.65;100.00;97848.56;5096084;28;20055;-80
2022/01/04 10:26:04;;;;;;;23.27;13.73;;;;;;;8.65;100.00;97848.56;5096298;28;20044;-80
2022/01/04 10:28:48;;;;;;;28.40;15.93;;;;;;;8.58;100.00;97844.53;5080854;28;20047;-82
2022/01/04 10:31:37;;;;;;;31.63;16.73;;;;;;;8.62;100.00;97814.78;5096065;28;20040;-80
2022/01/04 10:34:22;;;;;;;32.05;17.38;;;;;;;8.73;100.00;97830.75;5081422;28;20046;-79
2022/01/04 10:37:06;;;;;;;30.67;15.15;;;;;;;8.58;100.00;97832.34;5095602;28;20094;-79
2022/01/04 10:40:09;;;;;;;32.83;16.23;;;;;;;8.64;100.00;97824.22;5081019;28;20138;-80
2022/01/04 10:42:54;;;;;;;48.53;25.02;;;;;;;8.74;100.00;97816.81;5095431;28;20051;-80
2022/01/04 10:45:42;;;;;;;55.92;28.75;;;;;;;8.78;100.00;97810.50;5081132;28;20341;-82
2022/01/04 10:48:29;;;;;;;40.38;17.55;;;;;;;8.54;100.00;97752.50;5080981;28;20044;-79
2022/01/04 10:51:18;;;;;;;33.70;14.75;;;;;;;8.73;100.00;97770.72;5080764;28;20079;-85
2022/01/04 10:54:06;;;;;;;32.08;14.50;;;;;;;8.68;100.00;97777.06;5079800;28;20071;-80
2022/01/04 10:57:04;;;;;;;36.28;15.40;;;;;;;8.87;100.00;97785.69;5079003;28;20047;-84
2022/01/04 10:59:48;;;;;;;56.30;29.25;;;;;;;8.80;100.00;97777.31;5107677;28;20040;-84
2022/01/04 11:02:34;;;;;;;65.70;33.53;;;;;;;8.84;100.00;97781.47;5079555;28;20438;-87
2022/01/04 11:05:21;;;;;;;55.80;28.70;;;;;;;8.80;100.00;97766.88;5107917;28;20036;-83
2022/01/04 11:08:13;;;;;;;48.53;23.52;;;;;;;8.79;100.00;97759.13;5078972;28;20044;-84
2022/01/04 11:10:59;;;;;;;43.60;17.58;;;;;;;8.69;100.00;97765.75;5107935;28;20060;-79
2022/01/04 11:13:43;;;;;;;63.88;32.03;;;;;;;8.68;100.00;97758.81;5093949;28;20051;-78
2022/01/04 11:16:30;;;;;;;67.95;34.22;;;;;;;8.74;100.00;97753.28;5093833;28;20044;-79
2022/01/04 11:19:18;;;;;;;36.80;18.00;;;;;;;8.60;100.00;97744.38;5078977;28;20101;-79
2022/01/04 11:22:08;;;;;;;29.88;14.75;;;;;;;8.57;100.00;97747.16;5093118;28;20040;-79
2022/01/04 11:24:52;;;;;;;27.63;14.23;;;;;;;8.58;100.00;97725.38;5078928;28;20044;-79
2022/01/04 11:27:38;;;;;;;36.83;16.55;;;;;;;8.57;100.00;97728.03;5093689;28;20048;-79
2022/01/04 11:30:32;;;;;;;62.95;31.10;;;;;;;8.56;100.00;97719.38;5095511;28;20036;-79
2022/01/04 11:33:20;;;;;;;;;;;;;;;8.54;100.00;97708.16;5078529;28;20131;-79
2022/01/04 11:36:06;;;;;;;52.88;25.25;;;;;;;8.48;100.00;97691.97;5080651;28;19920;-79
2022/01/04 11:38:51;;;;;;;35.83;18.10;;;;;;;8.46;100.00;97691.22;5066741;28;20044;-79
2022/01/04 11:41:42;;;;;;;31.58;14.25;;;;;;;8.49;100.00;97686.69;5094310;28;20056;-79
2022/01/04 11:44:29;;;;;;;32.65;16.27;;;;;;;8.47;100.00;97672.84;5099461;28;20048;-79
2022/01/04 11:47:22;;;;;;;60.22;28.30;;;;;;;8.57;100.00;97673.25;5084114;28;20044;-79
2022/01/04 11:50:16;;;;;;;60.15;30.02;;;;;;;8.54;100.00;97663.78;5098498;28;20440;-79
2022/01/04 11:53:05;;;;;;;;;;;;;;;8.50;100.00;97658.81;5070231;28;20055;-79
2022/01/04 11:56:00;;;;;;;24.05;10.60;;;;;;;8.41;100.00;97653.13;5083996;28;19924;-79
2022/01/04 11:58:52;;;;;;;24.10;13.30;;;;;;;8.30;100.00;97612.84;5084076;28;20040;-79
2022/01/04 12:01:37;;;;;;;28.48;12.90;;;;;;;8.52;100.00;97636.97;5084377;28;20043;-79
2022/01/04 12:04:47;;;;;;;41.30;23.30;;;;;;;8.55;100.00;97628.13;5081209;28;20056;-79
2022/01/04 12:07:46;;;;;;;40.25;21.35;;;;;;;8.45;100.00;97617.31;5097981;28;20059;-79
2022/01/04 12:10:33;;;;;;;39.58;18.63;;;;;;;8.41;100.00;97594.91;5099164;28;20036;-79
2022/01/04 12:13:19;;;;;;;36.85;17.77;;;;;;;8.46;100.00;97590.31;5083939;28;20067;-79
2022/01/04 12:16:05;;;;;;;32.50;16.30;;;;;;;8.58;100.00;97589.69;5098485;28;20142;-79
2022/01/04 12:18:49;;;;;;;31.02;16.77;;;;;;;8.53;100.00;97567.34;5098535;28;20436;-79
2022/01/04 12:21:46;;;;;;;26.73;12.80;;;;;;;8.45;100.00;97559.94;5097955;28;20036;-79
2022/01/04 12:24:42;;;;;;;32.85;17.15;;;;;;;8.59;100.00;97564.44;5083889;28;20040;-79
2022/01/04 12:27:27;;;;;;;31.85;16.17;;;;;;;8.53;100.00;97551.69;5111889;28;20044;-78
2022/01/04 12:30:28;;;;;;;26.60;12.52;;;;;;;8.54;100.00;97543.78;5098568;28;20040;-79
2022/01/04 12:33:36;;;;;;;29.52;16.50;;;;;;;8.57;100.00;97538.41;5083236;28;20048;-79
2022/01/04 12:36:25;;;;;;;28.50;15.70;;;;;;;8.51;100.00;97543.94;5097657;28;20048;-78
2022/01/04 12:39:15;;;;;;;25.95;16.25;;;;;;;8.40;100.00;97523.63;5083072;28;20433;-79
2022/01/04 12:42:00;;;;;;;28.30;16.63;;;;;;;8.52;100.00;97522.16;5082947;28;20047;-79
2022/01/04 12:44:55;;;;;;;25.60;16.00;;;;;;;8.56;100.00;97518.47;5081815;28;20046;-79
2022/01/04 12:47:48;;;;;;;32.28;17.63;;;;;;;8.53;100.00;97516.00;5095386;28;20051;-79
2022/01/04 12:50:32;;;;;;;94.50;46.03;;;;;;;8.42;100.00;97500.94;5081100;28;20113;-79
2022/01/04 12:53:17;;;;;;;73.60;39.83;;;;;;;8.45;100.00;97517.31;5094441;28;20433;-79
2022/01/04 12:56:02;;;;;;;71.43;38.25;;;;;;;8.44;100.00;97516.50;5081070;28;20435;-79
2022/01/04 12:58:47;;;;;;;62.22;38.15;;;;;;;8.53;100.00;97499.50;5081960;28;20046;-79
2022/01/04 13:01:33;;;;;;;28.98;19.20;;;;;;;8.40;100.00;97496.72;5078217;28;20063;-78